This is the latest recevied weather packets stored in our database for station/object HOWARD. If no packets are shown the sender has not sent any weather packets the latest 10 day(s).
| Time | Temp. | Humidity | Pressure | Rain* | Wind** | Luminosity | Snow |
|---|---|---|---|---|---|---|---|
| 1788301506 | 12.22° C | 58% | 1011.4 hPa | 0 mm | - | - | - |
| 1788300883 | 11.67° C | 58% | 1011 hPa | 0 mm | - | - | - |
| 1788300283 | 11.67° C | 59% | 1011 hPa | 0 mm | - | - | - |
| 1788299683 | 11.67° C | 64% | 1011.2 hPa | 0 mm | - | - | - |
| 1788299083 | 11.11° C | 65% | 1011 hPa | 0 mm | - | - | - |
| 1788298483 | 10° C | 68% | 1011 hPa | 0 mm | - | - | - |
| 1788297884 | 10.56° C | 68% | 1011.2 hPa | 0 mm | - | - | - |
| 1788297283 | 10° C | 69% | 1011.3 hPa | 0 mm | - | - | - |
| 1788296683 | 11.11° C | 62% | 1011.5 hPa | 0 mm | - | - | - |
| 1788296083 | 10.56° C | 63% | 1011.6 hPa | 0 mm | - | - | - |
| 1788295484 | 10° C | 70% | 1011.6 hPa | 0 mm | - | - | - |
| 1788294883 | 10° C | 71% | 1011.5 hPa | 0 mm | - | - | - |
| 1788294283 | 10° C | 70% | 1011.5 hPa | 0 mm | - | - | - |
| 1788293683 | 10.56° C | 69% | 1011.9 hPa | 0 mm | - | - | - |
| 1788293083 | 10.56° C | 67% | 1012.1 hPa | 0 mm | - | - | - |
| 1788292483 | 10.56° C | 68% | 1012 hPa | 0 mm | - | - | - |
| 1788291883 | 10.56° C | 71% | 1012.1 hPa | 0 mm | - | - | - |
| 1788291283 | 10° C | 74% | 1012.6 hPa | 0 mm | - | - | - |
| 1788290683 | 9.44° C | 73% | 1012.5 hPa | 0 mm | - | - | - |
| 1788290083 | 9.44° C | 74% | 1012.3 hPa | 0 mm | - | - | - |
| 1788289505 | 9.44° C | 74% | 1012.6 hPa | 0 mm | - | - | - |
| 1788288883 | 9.44° C | 74% | 1012.5 hPa | 0 mm | - | - | - |
| 1788288283 | 9.44° C | 77% | 1013 hPa | 0 mm | - | - | - |
| 1788287683 | 10° C | 73% | 1012.6 hPa | 0 mm | - | - | - |
| 1788287083 | 10.56° C | 70% | 1012.6 hPa | 0 mm | - | - | - |
* Rain latest hour (hover to see other rain measurements)
** Current wind speed in m/s (hover to see current wind gust speed)